sensor_id;sensor_type;location;lat;lon;timestamp;pressure;altitude;pressure_sealevel;temperature;humidity
829;BME280;396;52.558;13.188;2023-03-14T00:00:03;98715.44;;;12.38;93.35
829;BME280;396;52.558;13.188;2023-03-14T00:02:31;98714.53;;;12.31;93.77
829;BME280;396;52.558;13.188;2023-03-14T00:04:57;98713.31;;;12.28;95.06
829;BME280;396;52.558;13.188;2023-03-14T00:07:24;98700.59;;;12.32;94.93
829;BME280;396;52.558;13.188;2023-03-14T00:09:51;98698.50;;;12.26;95.48
829;BME280;396;52.558;13.188;2023-03-14T00:12:18;98713.72;;;12.30;95.03
829;BME280;396;52.558;13.188;2023-03-14T00:14:46;98713.09;;;12.37;94.59
829;BME280;396;52.558;13.188;2023-03-14T00:17:12;98692.94;;;12.38;94.37
829;BME280;396;52.558;13.188;2023-03-14T00:19:39;98683.22;;;12.37;94.24
829;BME280;396;52.558;13.188;2023-03-14T00:22:07;98667.66;;;12.34;93.79
829;BME280;396;52.558;13.188;2023-03-14T00:24:33;98657.53;;;12.31;94.04
829;BME280;396;52.558;13.188;2023-03-14T00:27:00;98659.31;;;12.23;94.98
829;BME280;396;52.558;13.188;2023-03-14T00:29:26;98656.91;;;12.18;94.77
829;BME280;396;52.558;13.188;2023-03-14T00:31:54;98659.66;;;12.22;94.44
829;BME280;396;52.558;13.188;2023-03-14T00:34:21;98634.03;;;12.19;94.36
829;BME280;396;52.558;13.188;2023-03-14T00:36:48;98637.47;;;12.16;94.26
829;BME280;396;52.558;13.188;2023-03-14T00:39:14;98640.09;;;12.12;94.47
829;BME280;396;52.558;13.188;2023-03-14T00:41:41;98634.34;;;12.14;94.40
829;BME280;396;52.558;13.188;2023-03-14T00:44:08;98648.75;;;12.18;94.13
829;BME280;396;52.558;13.188;2023-03-14T00:46:34;98649.88;;;12.17;93.85
829;BME280;396;52.558;13.188;2023-03-14T00:49:02;98637.91;;;12.18;93.82
829;BME280;396;52.558;13.188;2023-03-14T00:51:29;98631.25;;;12.16;93.89
829;BME280;396;52.558;13.188;2023-03-14T00:53:55;98618.84;;;12.15;93.81
829;BME280;396;52.558;13.188;2023-03-14T00:56:22;98617.25;;;12.14;93.85
829;BME280;396;52.558;13.188;2023-03-14T00:58:49;98608.34;;;12.13;93.89
829;BME280;396;52.558;13.188;2023-03-14T01:01:17;98612.19;;;12.12;93.86
829;BME280;396;52.558;13.188;2023-03-14T01:03:44;98609.38;;;12.08;94.29
829;BME280;396;52.558;13.188;2023-03-14T01:06:14;98600.84;;;12.06;94.22
829;BME280;396;52.558;13.188;2023-03-14T01:08:41;98585.22;;;12.00;94.67
829;BME280;396;52.558;13.188;2023-03-14T01:11:09;98578.44;;;11.90;95.12
829;BME280;396;52.558;13.188;2023-03-14T01:13:36;98600.13;;;11.90;95.21
829;BME280;396;52.558;13.188;2023-03-14T01:16:04;98611.72;;;11.87;95.32
829;BME280;396;52.558;13.188;2023-03-14T01:18:32;98625.28;;;11.87;95.69
829;BME280;396;52.558;13.188;2023-03-14T01:21:09;98631.97;;;11.93;95.32
829;BME280;396;52.558;13.188;2023-03-14T01:23:41;98663.06;;;11.96;95.32
829;BME280;396;52.558;13.188;2023-03-14T01:26:08;98667.34;;;11.97;95.25
829;BME280;396;52.558;13.188;2023-03-14T01:28:36;98666.47;;;11.93;95.66
829;BME280;396;52.558;13.188;2023-03-14T01:31:08;98678.25;;;12.00;95.02
829;BME280;396;52.558;13.188;2023-03-14T01:33:36;98676.63;;;11.96;95.60
829;BME280;396;52.558;13.188;2023-03-14T01:36:04;98681.31;;;11.99;95.59
829;BME280;396;52.558;13.188;2023-03-14T01:38:32;98674.81;;;12.03;95.11
829;BME280;396;52.558;13.188;2023-03-14T01:41:02;98673.63;;;12.01;95.45
829;BME280;396;52.558;13.188;2023-03-14T01:43:29;98674.69;;;11.96;95.88
829;BME280;396;52.558;13.188;2023-03-14T01:46:21;98684.31;;;11.94;95.82
829;BME280;396;52.558;13.188;2023-03-14T01:49:03;98690.03;;;12.08;94.67
829;BME280;396;52.558;13.188;2023-03-14T01:51:36;98688.91;;;12.09;94.58
829;BME280;396;52.558;13.188;2023-03-14T01:54:09;98678.06;;;12.09;94.47
829;BME280;396;52.558;13.188;2023-03-14T01:56:38;98665.13;;;12.02;95.24
829;BME280;396;52.558;13.188;2023-03-14T01:59:08;98669.47;;;12.07;94.85
829;BME280;396;52.558;13.188;2023-03-14T02:01:43;98659.06;;;12.09;94.61
829;BME280;396;52.558;13.188;2023-03-14T02:04:11;98653.97;;;12.07;94.61
829;BME280;396;52.558;13.188;2023-03-14T02:06:44;98645.34;;;12.02;94.92
829;BME280;396;52.558;13.188;2023-03-14T02:09:14;98648.91;;;12.06;94.98
829;BME280;396;52.558;13.188;2023-03-14T02:11:43;98649.75;;;12.10;94.38
829;BME280;396;52.558;13.188;2023-03-14T02:14:17;98643.47;;;12.06;94.49
829;BME280;396;52.558;13.188;2023-03-14T02:16:47;98655.03;;;12.03;94.48
829;BME280;396;52.558;13.188;2023-03-14T02:19:17;98646.91;;;12.03;94.47
829;BME280;396;52.558;13.188;2023-03-14T02:21:50;98642.69;;;12.05;93.99
829;BME280;396;52.558;13.188;2023-03-14T02:24:23;98626.41;;;12.05;94.17
829;BME280;396;52.558;13.188;2023-03-14T02:27:06;98626.03;;;12.07;94.14
829;BME280;396;52.558;13.188;2023-03-14T02:29:36;98623.63;;;12.02;94.32
829;BME280;396;52.558;13.188;2023-03-14T02:32:05;98624.78;;;12.01;94.35
829;BME280;396;52.558;13.188;2023-03-14T02:34:33;98627.19;;;12.06;94.39
829;BME280;396;52.558;13.188;2023-03-14T02:37:02;98616.34;;;12.06;94.33
829;BME280;396;52.558;13.188;2023-03-14T02:39:35;98616.72;;;12.04;94.00
829;BME280;396;52.558;13.188;2023-03-14T02:42:02;98609.06;;;12.10;93.53
829;BME280;396;52.558;13.188;2023-03-14T02:44:30;98607.13;;;12.10;93.27
829;BME280;396;52.558;13.188;2023-03-14T02:47:01;98603.63;;;12.10;93.10
829;BME280;396;52.558;13.188;2023-03-14T02:49:30;98607.97;;;12.15;92.54
829;BME280;396;52.558;13.188;2023-03-14T02:51:58;98595.25;;;12.19;92.41
829;BME280;396;52.558;13.188;2023-03-14T02:54:25;98583.09;;;12.12;92.49
829;BME280;396;52.558;13.188;2023-03-14T02:56:52;98581.53;;;12.11;92.45
829;BME280;396;52.558;13.188;2023-03-14T02:59:18;98575.25;;;12.07;92.62
829;BME280;396;52.558;13.188;2023-03-14T03:01:46;98563.22;;;12.05;92.76
829;BME280;396;52.558;13.188;2023-03-14T03:04:13;98561.22;;;12.02;92.89
829;BME280;396;52.558;13.188;2023-03-14T03:06:39;98554.22;;;12.01;92.68
829;BME280;396;52.558;13.188;2023-03-14T03:09:07;98551.50;;;12.01;92.84
829;BME280;396;52.558;13.188;2023-03-14T03:11:34;98542.53;;;11.97;92.78
829;BME280;396;52.558;13.188;2023-03-14T03:14:01;98555.25;;;11.93;92.86
829;BME280;396;52.558;13.188;2023-03-14T03:16:27;98552.38;;;11.85;93.26
829;BME280;396;52.558;13.188;2023-03-14T03:18:55;98553.53;;;11.84;93.48
829;BME280;396;52.558;13.188;2023-03-14T03:21:22;98546.06;;;11.81;93.44
829;BME280;396;52.558;13.188;2023-03-14T03:23:49;98544.69;;;11.88;93.27
829;BME280;396;52.558;13.188;2023-03-14T03:26:16;98552.94;;;11.75;93.27
829;BME280;396;52.558;13.188;2023-03-14T03:28:42;98561.50;;;11.77;93.42
829;BME280;396;52.558;13.188;2023-03-14T03:31:10;98570.78;;;11.76;93.98
829;BME280;396;52.558;13.188;2023-03-14T03:33:42;98570.38;;;11.74;93.95
829;BME280;396;52.558;13.188;2023-03-14T03:36:11;98566.50;;;11.75;93.78
829;BME280;396;52.558;13.188;2023-03-14T03:38:38;98574.66;;;11.75;93.23
829;BME280;396;52.558;13.188;2023-03-14T03:41:05;98570.50;;;11.81;92.98
829;BME280;396;52.558;13.188;2023-03-14T03:43:32;98564.66;;;11.79;92.80
829;BME280;396;52.558;13.188;2023-03-14T03:46:02;98567.66;;;11.74;93.64
829;BME280;396;52.558;13.188;2023-03-14T03:48:33;98552.03;;;11.68;93.86
829;BME280;396;52.558;13.188;2023-03-14T03:51:00;98557.38;;;11.64;93.27
829;BME280;396;52.558;13.188;2023-03-14T03:53:28;98560.75;;;11.57;93.54
829;BME280;396;52.558;13.188;2023-03-14T03:55:54;98552.88;;;11.72;92.47
829;BME280;396;52.558;13.188;2023-03-14T03:58:21;98560.59;;;11.70;92.56
829;BME280;396;52.558;13.188;2023-03-14T04:00:48;98548.66;;;11.74;91.82
829;BME280;396;52.558;13.188;2023-03-14T04:03:15;98552.53;;;11.73;91.86
829;BME280;396;52.558;13.188;2023-03-14T04:05:42;98567.66;;;11.74;91.51
829;BME280;396;52.558;13.188;2023-03-14T04:08:12;98557.22;;;11.76;91.21
829;BME280;396;52.558;13.188;2023-03-14T04:10:43;98539.38;;;11.75;91.14
829;BME280;396;52.558;13.188;2023-03-14T04:13:09;98564.22;;;11.77;90.74
829;BME280;396;52.558;13.188;2023-03-14T04:15:36;98557.22;;;11.76;91.06
829;BME280;396;52.558;13.188;2023-03-14T04:18:02;98550.66;;;11.77;90.74
829;BME280;396;52.558;13.188;2023-03-14T04:20:29;98552.66;;;11.80;90.55
829;BME280;396;52.558;13.188;2023-03-14T04:22:56;98560.41;;;11.82;90.13
829;BME280;396;52.558;13.188;2023-03-14T04:25:22;98538.41;;;11.83;89.72
829;BME280;396;52.558;13.188;2023-03-14T04:27:50;98536.84;;;11.82;89.85
829;BME280;396;52.558;13.188;2023-03-14T04:30:17;98522.13;;;11.83;89.66
829;BME280;396;52.558;13.188;2023-03-14T04:32:43;98527.38;;;11.76;90.80
829;BME280;396;52.558;13.188;2023-03-14T04:35:10;98525.13;;;11.78;89.56
829;BME280;396;52.558;13.188;2023-03-14T04:37:37;98516.72;;;11.83;89.34
829;BME280;396;52.558;13.188;2023-03-14T04:40:05;98516.59;;;11.80;89.79
829;BME280;396;52.558;13.188;2023-03-14T04:42:32;98510.34;;;11.76;89.74
829;BME280;396;52.558;13.188;2023-03-14T04:45:00;98502.97;;;11.76;89.51
829;BME280;396;52.558;13.188;2023-03-14T04:47:27;98491.72;;;11.74;89.90
829;BME280;396;52.558;13.188;2023-03-14T04:49:54;98476.09;;;11.68;90.53
829;BME280;396;52.558;13.188;2023-03-14T04:52:21;98492.09;;;11.53;91.40
829;BME280;396;52.558;13.188;2023-03-14T04:54:48;98487.13;;;11.55;90.47
829;BME280;396;52.558;13.188;2023-03-14T04:57:14;98511.56;;;11.59;90.73
829;BME280;396;52.558;13.188;2023-03-14T04:59:41;98510.84;;;11.62;89.96
829;BME280;396;52.558;13.188;2023-03-14T05:02:09;98504.78;;;11.69;89.22
829;BME280;396;52.558;13.188;2023-03-14T05:04:36;98509.41;;;11.68;89.08
829;BME280;396;52.558;13.188;2023-03-14T05:07:02;98501.28;;;11.68;88.95
829;BME280;396;52.558;13.188;2023-03-14T05:09:29;98498.63;;;11.72;88.80
829;BME280;396;52.558;13.188;2023-03-14T05:11:56;98491.34;;;11.76;88.18
829;BME280;396;52.558;13.188;2023-03-14T05:14:22;98491.81;;;11.81;87.83
829;BME280;396;52.558;13.188;2023-03-14T05:16:49;98489.91;;;11.82;88.09
829;BME280;396;52.558;13.188;2023-03-14T05:19:17;98481.28;;;11.76;88.10
829;BME280;396;52.558;13.188;2023-03-14T05:24:44;98479.72;;;11.75;87.79
829;BME280;396;52.558;13.188;2023-03-14T05:27:11;98480.13;;;11.77;87.58
829;BME280;396;52.558;13.188;2023-03-14T05:29:37;98485.63;;;11.81;87.72
829;BME280;396;52.558;13.188;2023-03-14T05:32:04;98481.72;;;11.78;87.73
829;BME280;396;52.558;13.188;2023-03-14T05:34:32;98476.69;;;11.80;87.39
829;BME280;396;52.558;13.188;2023-03-14T05:36:59;98480.03;;;11.70;88.14
829;BME280;396;52.558;13.188;2023-03-14T05:39:25;98467.53;;;11.66;88.02
829;BME280;396;52.558;13.188;2023-03-14T05:41:52;98462.59;;;11.71;87.09
829;BME280;396;52.558;13.188;2023-03-14T05:44:21;98477.84;;;11.79;86.51
829;BME280;396;52.558;13.188;2023-03-14T05:46:48;98479.41;;;11.80;86.27
829;BME280;396;52.558;13.188;2023-03-14T05:49:14;98489.59;;;11.83;86.00
829;BME280;396;52.558;13.188;2023-03-14T05:51:42;98482.59;;;11.82;86.02
829;BME280;396;52.558;13.188;2023-03-14T05:54:09;98477.94;;;11.83;85.55
829;BME280;396;52.558;13.188;2023-03-14T05:56:35;98475.56;;;11.81;85.39
829;BME280;396;52.558;13.188;2023-03-14T05:59:02;98475.13;;;11.79;85.87
829;BME280;396;52.558;13.188;2023-03-14T06:01:29;98476.28;;;11.78;85.48
829;BME280;396;52.558;13.188;2023-03-14T06:03:56;98474.00;;;11.80;85.23
829;BME280;396;52.558;13.188;2023-03-14T06:06:22;98473.50;;;11.75;86.04
829;BME280;396;52.558;13.188;2023-03-14T06:08:50;98482.84;;;11.77;85.73
829;BME280;396;52.558;13.188;2023-03-14T06:11:17;98470.88;;;11.78;84.63
829;BME280;396;52.558;13.188;2023-03-14T06:13:43;98459.44;;;11.89;83.95
829;BME280;396;52.558;13.188;2023-03-14T06:16:11;98461.78;;;11.90;83.44
829;BME280;396;52.558;13.188;2023-03-14T06:18:38;98466.50;;;11.93;83.11
829;BME280;396;52.558;13.188;2023-03-14T06:21:05;98461.47;;;11.95;82.85
829;BME280;396;52.558;13.188;2023-03-14T06:23:32;98471.13;;;11.93;83.40
829;BME280;396;52.558;13.188;2023-03-14T06:26:00;98477.81;;;11.99;83.21
829;BME280;396;52.558;13.188;2023-03-14T06:28:27;98472.75;;;11.97;83.35
829;BME280;396;52.558;13.188;2023-03-14T06:30:54;98467.41;;;12.01;82.11
829;BME280;396;52.558;13.188;2023-03-14T06:33:20;98458.81;;;11.99;82.86
829;BME280;396;52.558;13.188;2023-03-14T06:35:47;98464.31;;;12.02;82.08
829;BME280;396;52.558;13.188;2023-03-14T06:38:13;98471.81;;;12.09;81.82
829;BME280;396;52.558;13.188;2023-03-14T06:40:40;98487.72;;;12.10;81.69
829;BME280;396;52.558;13.188;2023-03-14T06:43:08;98480.47;;;12.18;81.06
829;BME280;396;52.558;13.188;2023-03-14T06:45:35;98494.91;;;12.22;81.67
829;BME280;396;52.558;13.188;2023-03-14T06:48:01;98499.22;;;12.27;81.29
829;BME280;396;52.558;13.188;2023-03-14T06:50:28;98485.34;;;12.32;80.91
829;BME280;396;52.558;13.188;2023-03-14T06:52:55;98496.63;;;12.34;80.99
829;BME280;396;52.558;13.188;2023-03-14T06:55:22;98496.72;;;12.41;80.20
829;BME280;396;52.558;13.188;2023-03-14T06:57:48;98499.91;;;12.47;80.41
829;BME280;396;52.558;13.188;2023-03-14T07:00:17;98496.09;;;12.51;79.17
829;BME280;396;52.558;13.188;2023-03-14T07:02:44;98501.72;;;12.62;78.75
829;BME280;396;52.558;13.188;2023-03-14T07:05:11;98500.44;;;12.56;78.97
829;BME280;396;52.558;13.188;2023-03-14T07:07:37;98517.94;;;12.58;78.73
829;BME280;396;52.558;13.188;2023-03-14T07:10:05;98510.47;;;12.52;79.15
829;BME280;396;52.558;13.188;2023-03-14T07:12:34;98520.59;;;12.55;79.35
829;BME280;396;52.558;13.188;2023-03-14T07:15:00;98520.91;;;12.50;79.19
829;BME280;396;52.558;13.188;2023-03-14T07:17:28;98527.91;;;12.51;79.55
829;BME280;396;52.558;13.188;2023-03-14T07:19:55;98523.19;;;12.48;79.65
829;BME280;396;52.558;13.188;2023-03-14T07:22:21;98530.81;;;12.38;80.81
829;BME280;396;52.558;13.188;2023-03-14T07:24:48;98524.97;;;12.36;80.63
829;BME280;396;52.558;13.188;2023-03-14T07:27:14;98528.09;;;12.38;80.36
829;BME280;396;52.558;13.188;2023-03-14T07:29:41;98533.97;;;12.41;81.11
829;BME280;396;52.558;13.188;2023-03-14T07:32:08;98537.94;;;12.47;81.00
829;BME280;396;52.558;13.188;2023-03-14T07:34:36;98540.47;;;12.59;79.82
829;BME280;396;52.558;13.188;2023-03-14T07:37:02;98540.56;;;12.66;79.08
829;BME280;396;52.558;13.188;2023-03-14T07:39:30;98546.56;;;12.79;79.53
829;BME280;396;52.558;13.188;2023-03-14T07:41:57;98550.09;;;12.79;79.48
829;BME280;396;52.558;13.188;2023-03-14T07:44:23;98542.41;;;12.85;78.95
829;BME280;396;52.558;13.188;2023-03-14T07:46:50;98541.69;;;12.92;78.79
829;BME280;396;52.558;13.188;2023-03-14T07:49:16;98541.34;;;12.93;79.02
829;BME280;396;52.558;13.188;2023-03-14T07:51:47;98548.81;;;13.00;78.59
829;BME280;396;52.558;13.188;2023-03-14T07:54:14;98547.25;;;12.99;78.15
829;BME280;396;52.558;13.188;2023-03-14T07:56:41;98537.34;;;13.13;77.81
829;BME280;396;52.558;13.188;2023-03-14T07:59:07;98540.25;;;13.24;77.36
829;BME280;396;52.558;13.188;2023-03-14T08:01:34;98533.03;;;13.39;76.18
829;BME280;396;52.558;13.188;2023-03-14T08:04:01;98533.09;;;13.43;76.30
829;BME280;396;52.558;13.188;2023-03-14T08:06:27;98528.47;;;13.47;76.02
829;BME280;396;52.558;13.188;2023-03-14T08:08:55;98533.97;;;13.54;76.48
829;BME280;396;52.558;13.188;2023-03-14T08:11:22;98527.03;;;13.56;76.48
829;BME280;396;52.558;13.188;2023-03-14T08:13:48;98530.19;;;13.62;75.05
829;BME280;396;52.558;13.188;2023-03-14T08:16:17;98524.81;;;13.66;74.82
829;BME280;396;52.558;13.188;2023-03-14T08:18:44;98528.53;;;13.50;75.97
829;BME280;396;52.558;13.188;2023-03-14T08:21:11;98520.66;;;13.45;75.67
829;BME280;396;52.558;13.188;2023-03-14T08:23:38;98528.16;;;13.52;75.45
829;BME280;396;52.558;13.188;2023-03-14T08:26:06;98529.31;;;13.54;76.10
829;BME280;396;52.558;13.188;2023-03-14T08:28:33;98533.09;;;13.43;76.23
829;BME280;396;52.558;13.188;2023-03-14T08:31:00;98527.50;;;13.32;76.71
829;BME280;396;52.558;13.188;2023-03-14T08:33:28;98544.44;;;13.22;77.53
829;BME280;396;52.558;13.188;2023-03-14T08:35:57;98544.81;;;13.20;77.82
829;BME280;396;52.558;13.188;2023-03-14T08:38:24;98539.72;;;13.15;79.33
829;BME280;396;52.558;13.188;2023-03-14T08:40:55;98534.56;;;13.10;80.63
829;BME280;396;52.558;13.188;2023-03-14T08:43:23;98545.03;;;13.08;80.97
829;BME280;396;52.558;13.188;2023-03-14T08:45:49;98538.09;;;13.10;80.53
829;BME280;396;52.558;13.188;2023-03-14T08:48:16;98542.53;;;13.22;79.06
829;BME280;396;52.558;13.188;2023-03-14T08:50:44;98541.03;;;13.25;79.27
829;BME280;396;52.558;13.188;2023-03-14T08:53:11;98546.19;;;13.33;77.55
829;BME280;396;52.558;13.188;2023-03-14T08:55:37;98547.03;;;13.41;77.59
829;BME280;396;52.558;13.188;2023-03-14T08:58:04;98555.75;;;13.54;76.85
829;BME280;396;52.558;13.188;2023-03-14T09:00:32;98554.28;;;13.60;76.87
829;BME280;396;52.558;13.188;2023-03-14T09:02:58;98550.03;;;13.62;76.26
829;BME280;396;52.558;13.188;2023-03-14T09:05:25;98553.69;;;13.77;75.23
829;BME280;396;52.558;13.188;2023-03-14T09:07:52;98541.63;;;13.75;75.04
829;BME280;396;52.558;13.188;2023-03-14T09:10:18;98548.06;;;13.63;74.94
829;BME280;396;52.558;13.188;2023-03-14T09:12:45;98533.97;;;13.54;74.93
829;BME280;396;52.558;13.188;2023-03-14T09:15:12;98535.56;;;13.55;75.74
829;BME280;396;52.558;13.188;2023-03-14T09:17:42;98528.97;;;13.56;75.33
829;BME280;396;52.558;13.188;2023-03-14T09:20:10;98529.91;;;13.71;74.76
829;BME280;396;52.558;13.188;2023-03-14T09:22:36;98534.06;;;13.95;74.00
829;BME280;396;52.558;13.188;2023-03-14T09:25:03;98532.75;;;14.22;72.96
829;BME280;396;52.558;13.188;2023-03-14T09:27:30;98516.66;;;14.51;70.19
829;BME280;396;52.558;13.188;2023-03-14T09:29:57;98520.72;;;14.71;69.58
829;BME280;396;52.558;13.188;2023-03-14T09:32:24;98509.50;;;14.87;69.86
829;BME280;396;52.558;13.188;2023-03-14T09:34:52;98504.16;;;15.08;68.97
829;BME280;396;52.558;13.188;2023-03-14T09:37:18;98517.38;;;14.99;64.77
829;BME280;396;52.558;13.188;2023-03-14T09:39:46;98518.06;;;14.85;65.63
829;BME280;396;52.558;13.188;2023-03-14T09:42:15;98513.69;;;14.74;67.54
829;BME280;396;52.558;13.188;2023-03-14T09:44:50;98511.72;;;14.67;67.03
829;BME280;396;52.558;13.188;2023-03-14T09:47:19;98516.41;;;14.70;67.05
829;BME280;396;52.558;13.188;2023-03-14T09:49:47;98519.50;;;14.69;66.39
829;BME280;396;52.558;13.188;2023-03-14T09:52:18;98519.91;;;14.67;65.50
829;BME280;396;52.558;13.188;2023-03-14T09:54:49;98522.13;;;14.54;66.69
829;BME280;396;52.558;13.188;2023-03-14T09:57:18;98529.94;;;14.56;66.37
829;BME280;396;52.558;13.188;2023-03-14T09:59:47;98525.69;;;14.58;66.51
829;BME280;396;52.558;13.188;2023-03-14T10:02:17;98528.78;;;14.57;66.21
829;BME280;396;52.558;13.188;2023-03-14T10:04:45;98520.19;;;14.55;65.21
829;BME280;396;52.558;13.188;2023-03-14T10:07:16;98521.38;;;14.54;66.63
829;BME280;396;52.558;13.188;2023-03-14T10:09:45;98520.19;;;14.55;65.37
829;BME280;396;52.558;13.188;2023-03-14T10:12:11;98524.84;;;14.51;65.08
829;BME280;396;52.558;13.188;2023-03-14T10:14:47;98528.72;;;14.50;66.75
829;BME280;396;52.558;13.188;2023-03-14T10:17:15;98525.16;;;14.46;65.18
829;BME280;396;52.558;13.188;2023-03-14T10:19:53;98532.56;;;14.45;64.94
829;BME280;396;52.558;13.188;2023-03-14T10:22:23;98532.56;;;14.45;65.61
829;BME280;396;52.558;13.188;2023-03-14T10:24:52;98533.41;;;14.49;64.21
829;BME280;396;52.558;13.188;2023-03-14T10:27:21;98530.59;;;14.46;65.18
829;BME280;396;52.558;13.188;2023-03-14T10:29:53;98529.38;;;14.36;66.90
829;BME280;396;52.558;13.188;2023-03-14T10:32:21;98546.13;;;14.42;66.17
829;BME280;396;52.558;13.188;2023-03-14T10:35:18;98535.56;;;14.33;66.71
829;BME280;396;52.558;13.188;2023-03-14T10:37:52;98529.75;;;14.38;66.67
829;BME280;396;52.558;13.188;2023-03-14T10:40:24;98535.97;;;14.38;66.48
829;BME280;396;52.558;13.188;2023-03-14T10:42:51;98527.00;;;14.31;67.46
829;BME280;396;52.558;13.188;2023-03-14T10:45:33;98532.44;;;14.31;66.34
829;BME280;396;52.558;13.188;2023-03-14T10:48:15;98523.88;;;14.32;66.69
829;BME280;396;52.558;13.188;2023-03-14T10:50:49;98526.22;;;14.34;67.18
829;BME280;396;52.558;13.188;2023-03-14T10:53:18;98526.22;;;14.30;67.82
829;BME280;396;52.558;13.188;2023-03-14T10:55:45;98524.66;;;14.33;67.26
829;BME280;396;52.558;13.188;2023-03-14T10:58:20;98526.16;;;14.23;66.99
829;BME280;396;52.558;13.188;2023-03-14T11:00:51;98531.59;;;14.23;67.06
829;BME280;396;52.558;13.188;2023-03-14T11:03:18;98529.25;;;14.22;66.90
829;BME280;396;52.558;13.188;2023-03-14T11:05:49;98524.53;;;14.19;67.65
829;BME280;396;52.558;13.188;2023-03-14T11:08:24;98527.28;;;14.19;66.58
829;BME280;396;52.558;13.188;2023-03-14T11:11:06;98524.59;;;14.22;67.13
829;BME280;396;52.558;13.188;2023-03-14T11:13:38;98527.88;;;14.01;66.70
829;BME280;396;52.558;13.188;2023-03-14T11:16:09;98526.75;;;14.06;67.04
829;BME280;396;52.558;13.188;2023-03-14T11:19:03;98534.59;;;14.11;66.92
829;BME280;396;52.558;13.188;2023-03-14T11:21:43;98524.81;;;14.06;66.72
829;BME280;396;52.558;13.188;2023-03-14T11:24:35;98527.63;;;14.13;66.88
829;BME280;396;52.558;13.188;2023-03-14T11:27:09;98527.50;;;14.03;68.69
829;BME280;396;52.558;13.188;2023-03-14T11:29:47;98528.66;;;14.02;68.15
829;BME280;396;52.558;13.188;2023-03-14T11:32:23;98521.34;;;14.09;67.23
829;BME280;396;52.558;13.188;2023-03-14T11:34:54;98529.19;;;14.14;66.96
829;BME280;396;52.558;13.188;2023-03-14T11:37:24;98520.63;;;14.12;67.73
829;BME280;396;52.558;13.188;2023-03-14T11:39:59;98526.38;;;14.07;68.44
829;BME280;396;52.558;13.188;2023-03-14T11:42:32;98524.06;;;14.09;68.22
829;BME280;396;52.558;13.188;2023-03-14T11:45:00;98521.03;;;14.18;68.63
829;BME280;396;52.558;13.188;2023-03-14T11:47:30;98528.81;;;14.20;68.65
829;BME280;396;52.558;13.188;2023-03-14T11:50:02;98519.06;;;14.15;69.14
829;BME280;396;52.558;13.188;2023-03-14T11:52:32;98520.63;;;14.16;68.59
829;BME280;396;52.558;13.188;2023-03-14T11:55:05;98523.69;;;14.11;69.61
829;BME280;396;52.558;13.188;2023-03-14T11:57:33;98522.88;;;14.07;71.82
829;BME280;396;52.558;13.188;2023-03-14T12:00:04;98538.72;;;13.98;75.13
829;BME280;396;52.558;13.188;2023-03-14T12:02:47;98523.97;;;13.61;77.89
829;BME280;396;52.558;13.188;2023-03-14T12:05:40;98528.47;;;13.47;77.03
829;BME280;396;52.558;13.188;2023-03-14T12:08:30;98514.41;;;13.41;76.55
829;BME280;396;52.558;13.188;2023-03-14T12:11:04;98507.84;;;13.42;76.94
829;BME280;396;52.558;13.188;2023-03-14T12:13:37;98503.72;;;13.55;75.98
829;BME280;396;52.558;13.188;2023-03-14T12:16:06;98510.47;;;13.72;74.00
829;BME280;396;52.558;13.188;2023-03-14T12:18:35;98503.34;;;13.98;73.52
829;BME280;396;52.558;13.188;2023-03-14T12:21:06;98502.84;;;14.29;71.62
829;BME280;396;52.558;13.188;2023-03-14T12:23:36;98494.50;;;14.52;69.49
829;BME280;396;52.558;13.188;2023-03-14T12:26:13;98494.63;;;14.70;69.51
829;BME280;396;52.558;13.188;2023-03-14T12:28:43;98494.81;;;15.06;68.81
829;BME280;396;52.558;13.188;2023-03-14T12:31:40;98498.03;;;15.29;66.46
829;BME280;396;52.558;13.188;2023-03-14T12:34:26;98498.41;;;15.28;67.33
829;BME280;396;52.558;13.188;2023-03-14T12:37:26;98500.28;;;15.13;66.38
829;BME280;396;52.558;13.188;2023-03-14T12:40:03;98511.50;;;14.94;67.95
829;BME280;396;52.558;13.188;2023-03-14T12:42:43;98504.06;;;14.91;71.59
829;BME280;396;52.558;13.188;2023-03-14T12:45:21;98505.53;;;14.74;75.13
829;BME280;396;52.558;13.188;2023-03-14T12:48:04;98510.03;;;14.52;75.06
829;BME280;396;52.558;13.188;2023-03-14T12:50:36;98507.47;;;14.22;76.26
829;BME280;396;52.558;13.188;2023-03-14T12:56:32;98486.81;;;13.76;83.33
829;BME280;396;52.558;13.188;2023-03-14T12:59:31;98494.25;;;13.46;86.21
829;BME280;396;52.558;13.188;2023-03-14T13:02:01;98493.75;;;13.33;88.66
829;BME280;396;52.558;13.188;2023-03-14T13:04:32;98484.34;;;13.27;89.99
829;BME280;396;52.558;13.188;2023-03-14T13:07:00;98483.28;;;13.35;89.21
829;BME280;396;52.558;13.188;2023-03-14T13:10:04;98486.19;;;13.90;84.39
829;BME280;396;52.558;13.188;2023-03-14T13:12:38;98486.56;;;14.36;81.14
829;BME280;396;52.558;13.188;2023-03-14T13:15:18;98482.00;;;14.48;78.02
829;BME280;396;52.558;13.188;2023-03-14T13:17:46;98473.84;;;15.24;74.38
829;BME280;396;52.558;13.188;2023-03-14T13:20:16;98467.44;;;16.25;70.19
829;BME280;396;52.558;13.188;2023-03-14T13:22:47;98463.78;;;17.00;66.60
829;BME280;396;52.558;13.188;2023-03-14T13:25:15;98458.97;;;18.02;61.91
829;BME280;396;52.558;13.188;2023-03-14T13:27:43;98460.94;;;18.47;58.63
829;BME280;396;52.558;13.188;2023-03-14T13:30:21;98463.63;;;18.50;58.04
829;BME280;396;52.558;13.188;2023-03-14T13:32:49;98462.25;;;17.79;59.65
829;BME280;396;52.558;13.188;2023-03-14T13:35:19;98458.31;;;17.00;62.26
829;BME280;396;52.558;13.188;2023-03-14T13:37:46;98459.91;;;16.94;64.18
829;BME280;396;52.558;13.188;2023-03-14T13:40:26;98464.97;;;16.95;63.45
829;BME280;396;52.558;13.188;2023-03-14T13:43:01;98454.47;;;16.69;63.24
829;BME280;396;52.558;13.188;2023-03-14T13:45:30;98447.47;;;16.60;64.18
829;BME280;396;52.558;13.188;2023-03-14T13:47:56;98451.41;;;16.56;65.51
829;BME280;396;52.558;13.188;2023-03-14T13:50:23;98444.28;;;16.94;64.17